• Join FlightAware (Why Join?)
  • Login
  • US Flag 
01:10AM EST


 

Airport Tracker/Info


-or-


 

Live Flight TrackerFlight Track Log ✈ OPT438 ✈ 25-Feb-2014 ✈ KTEB - KISP

Flight Track Log - Related Links

Times and Time Zones

All times are in EST time to prevent confusion due to time zone crossing. See the OPT438 flight status page for this flight to view local times or setup timezone preferences in your user account.

Time Position Orientation Groundspeed Altitude Reporting Facility
EST Latitude Longitude Course Direction KTS MPH feet Rate Location/Type
01:13PM 40.8333 -74.1000 270° West 178 205 1,500  Level New York TRACON
01:14PM 40.8333 -74.1667 270° West 191 220 1,900 1,950 Climbing New York TRACON
01:15PM 40.8500 -74.2333 288° West 234 269 5,400 2,100 Climbing New York TRACON
01:16PM 40.9167 -74.2333 360° North 263 303 6,100 300 Climbing New York TRACON
01:17PM 40.9833 -74.2000 21° North 263 303 6,000  Descending New York TRACON
01:18PM 41.0500 -74.1833 11° North 263 303 6,100 50 Climbing New York TRACON
01:19PM 41.1000 -74.1000 51° Northeast 282 325 6,100 -150 Level New York TRACON
01:20PM 41.1333 -74.0000 66° East 279 321 5,800 -450 Descending New York TRACON
01:21PM 41.1667 -73.9167 62° Northeast 275 316 5,200 -350 Descending New York TRACON
01:22PM 41.2000 -73.8167 66° East 268 308 5,100 -50 Descending New York TRACON
01:23PM 41.2333 -73.7167 66° East 286 329 5,100  Level New York TRACON
01:24PM 41.2667 -73.6333 62° Northeast 293 337 5,100  Level New York TRACON
01:25PM 41.2667 -73.5333 90° East 281 323 5,100 -50 Level New York TRACON
01:26PM 41.2667 -73.4333 90° East 278 320 5,000 -550 Descending New York TRACON
01:27PM 41.2500 -73.3333 102° East 257 296 4,000 -850 Descending New York TRACON
01:28PM 41.2333 -73.2500 105° East 249 287 3,300 -300 Descending New York TRACON
01:30PM 41.1500 -73.1167 143° Southeast 235 270 3,100 -67 Descending New York TRACON
01:31PM 41.1167 -73.0500 124° Southeast 222 255 3,100 -50 Level New York TRACON
01:32PM 41.0500 -73.0167 159° South 204 235 3,000 -190 Descending New York TRACON
01:33PM 41.0000 -73.0000 166° South 198 228 2,700 -432 Descending New York TRACON
01:34PM 40.9500 -72.9667 153° Southeast 196 226 2,100 -300 Descending New York TRACON
01:35PM 40.9000 -72.9667 180° South 192 221 2,100 -100 Level New York TRACON
01:36PM 40.8667 -73.0167 229° Southwest 164 189 1,900 -500 Descending New York TRACON
01:37PM 40.8333 -73.0500 217° Southwest 146 168 1,100 -800 Descending New York TRACON
01:38PM 40.8000 -73.0833 217° Southwest 126 145 300 -800 Descending New York TRACON
01:40PM 40.7952 -73.1002 237° Southwest  Level Estimated
01:47PM 40.7952 -73.1002 237° Southwest  Level Estimated
01:48PM 40.7952 -73.1002 237° Southwest  Level Estimated
01:49PM 40.7952 -73.1002 237° Southwest  Level Estimated
01:50PM 40.7952 -73.1002 237° Southwest  Level Estimated
01:51PM 40.7952 -73.1002 237° Southwest  Level Estimated
01:52PM 40.7952 -73.1002 237° Southwest  Level Estimated
01:53PM 40.7952 -73.1002 237° Southwest  Level Estimated
01:54PM 40.7952 -73.1002 237° Southwest  Level Estimated
01:55PM 40.7952 -73.1002 237° Southwest  Level Estimated